createdAt,value
2022-08-31T00:02:42.710Z,99.90
2022-08-31T00:05:31.207Z,99.90
2022-08-31T00:21:29.559Z,99.90
2022-08-31T00:24:11.436Z,99.90
2022-08-31T00:26:49.789Z,99.90
2022-08-31T00:30:57.209Z,99.90
2022-08-31T00:37:09.722Z,99.90
2022-08-31T00:39:54.004Z,99.90
2022-08-31T00:42:33.081Z,99.90
2022-08-31T00:45:05.438Z,99.90
2022-08-31T00:58:13.905Z,99.90
2022-08-31T01:01:10.990Z,99.90
2022-08-31T01:08:46.884Z,99.90
2022-08-31T01:19:23.639Z,99.90
2022-08-31T01:34:19.839Z,99.90
2022-08-31T01:37:03.413Z,99.90
2022-08-31T01:39:39.332Z,99.90
2022-08-31T01:42:23.170Z,99.90
2022-08-31T01:45:51.555Z,99.90
2022-08-31T01:48:31.598Z,99.90
2022-08-31T01:51:20.845Z,99.90
2022-08-31T01:54:00.887Z,99.90
2022-08-31T01:56:41.658Z,99.90
2022-08-31T01:59:33.872Z,99.90
2022-08-31T02:02:15.609Z,99.90
2022-08-31T02:05:17.009Z,99.90
2022-08-31T02:07:59.639Z,99.90
2022-08-31T02:10:52.655Z,99.90
2022-08-31T02:13:35.747Z,99.90
2022-08-31T02:16:29.057Z,99.90
2022-08-31T02:22:26.349Z,99.90
2022-08-31T02:25:18.309Z,99.90
2022-08-31T02:28:03.661Z,99.90
2022-08-31T02:31:10.342Z,99.90
2022-08-31T02:33:38.945Z,99.90
2022-08-31T02:36:18.951Z,99.90
2022-08-31T02:39:06.298Z,99.90
2022-08-31T02:41:44.845Z,99.90
2022-08-31T02:44:30.024Z,99.90
2022-08-31T02:51:29.210Z,99.90
2022-08-31T02:57:41.253Z,99.90
2022-08-31T03:00:28.083Z,99.90
2022-08-31T03:03:06.162Z,99.90
2022-08-31T03:06:05.328Z,99.90
2022-08-31T03:09:30.842Z,99.90
2022-08-31T03:20:17.473Z,99.90
2022-08-31T03:23:19.027Z,99.90
2022-08-31T03:26:09.376Z,99.90
2022-08-31T03:29:42.086Z,99.90
2022-08-31T03:32:32.869Z,99.90
2022-08-31T03:35:22.645Z,99.90
2022-08-31T03:38:32.303Z,99.90
2022-08-31T03:41:50.437Z,99.90
2022-08-31T03:45:00.266Z,99.90
2022-08-31T03:47:44.853Z,99.90
2022-08-31T03:55:03.198Z,99.90
2022-08-31T04:01:15.649Z,99.90
2022-08-31T04:04:06.190Z,99.90
2022-08-31T04:09:34.938Z,99.90
2022-08-31T04:12:22.954Z,99.90
2022-08-31T04:18:25.704Z,99.90
2022-08-31T04:24:52.605Z,99.90
2022-08-31T04:46:49.545Z,99.90
2022-08-31T04:49:34.524Z,99.90
2022-08-31T04:56:37.422Z,99.90
2022-08-31T04:59:41.756Z,99.90
2022-08-31T05:02:48.914Z,99.90
2022-08-31T05:14:43.058Z,99.90
2022-08-31T06:06:31.596Z,99.90
2022-08-31T06:09:45.525Z,99.90
2022-08-31T06:12:54.785Z,99.90
2022-08-31T06:23:08.049Z,99.90
2022-08-31T07:07:48.203Z,99.90
2022-08-31T07:13:48.313Z,99.90
2022-08-31T07:17:05.853Z,99.90
2022-08-31T07:20:28.033Z,99.90
2022-08-31T07:27:22.823Z,99.90
2022-08-31T07:37:21.813Z,99.90
2022-08-31T10:39:52.750Z,52.90
2022-08-31T11:01:46.566Z,41.30
2022-08-31T11:05:22.712Z,34.80
2022-08-31T11:20:58.406Z,40.40
2022-08-31T11:24:04.320Z,41.20
2022-08-31T11:27:05.262Z,41.60
2022-08-31T11:30:06.401Z,43.30
2022-08-31T11:33:04.611Z,37.40
2022-08-31T11:36:13.970Z,35.60
2022-08-31T11:42:35.960Z,23.50
2022-08-31T11:49:01.160Z,21.20
2022-08-31T11:52:37.967Z,16.20
2022-08-31T11:59:22.792Z,21.10
2022-08-31T12:05:20.335Z,13.20
2022-08-31T12:07:56.328Z,13.30
2022-08-31T12:11:08.476Z,14.50
2022-08-31T12:14:05.677Z,16.90
2022-08-31T12:20:07.236Z,9.90
2022-08-31T12:27:01.800Z,10.60
2022-08-31T12:30:39.171Z,7.70
2022-08-31T14:12:24.276Z,7.50
2022-08-31T14:41:38.827Z,1.00
2022-08-31T15:29:49.758Z,3.50
2022-08-31T15:37:33.956Z,7.20
2022-08-31T15:43:47.958Z,7.50
2022-08-31T15:46:41.308Z,6.40
2022-08-31T15:49:48.774Z,5.30
2022-08-31T15:52:51.934Z,5.70
2022-08-31T15:56:11.980Z,5.80
2022-08-31T15:58:50.549Z,6.10
2022-08-31T16:01:22.796Z,5.80
2022-08-31T16:07:41.363Z,5.50
2022-08-31T16:11:04.042Z,7.40
2022-08-31T16:13:49.182Z,5.90
2022-08-31T16:17:11.987Z,6.20
2022-08-31T16:20:28.239Z,8.80
2022-08-31T16:26:29.417Z,7.50
2022-08-31T16:29:32.020Z,8.40
2022-08-31T16:32:10.399Z,8.10
2022-08-31T16:46:41.546Z,9.20
2022-08-31T16:49:33.816Z,8.40
2022-08-31T16:52:03.485Z,9.30
2022-08-31T16:54:36.095Z,9.80
2022-08-31T16:57:07.386Z,10.60
2022-08-31T16:59:44.660Z,11.30
2022-08-31T17:02:16.716Z,12.00
2022-08-31T17:04:52.432Z,12.70
2022-08-31T17:07:21.679Z,11.10
2022-08-31T17:09:50.395Z,11.60
2022-08-31T17:12:21.514Z,10.50
2022-08-31T17:14:52.976Z,11.40
2022-08-31T17:17:25.226Z,10.10
2022-08-31T17:19:55.821Z,10.20
2022-08-31T17:22:31.685Z,9.80
2022-08-31T17:25:02.663Z,9.50
2022-08-31T17:27:32.280Z,7.30
2022-08-31T17:30:01.344Z,6.30
2022-08-31T17:32:30.622Z,7.20
2022-08-31T17:34:58.691Z,5.70
2022-08-31T17:37:30.746Z,4.70
2022-08-31T17:40:03.315Z,1.40
2022-08-31T17:42:34.809Z,1.00
2022-08-31T17:45:05.176Z,1.00
2022-08-31T17:47:35.866Z,1.00
2022-08-31T17:50:04.207Z,1.00
2022-08-31T17:52:38.491Z,1.60
2022-08-31T17:55:07.792Z,3.70
2022-08-31T17:57:35.727Z,5.90
2022-08-31T18:00:05.494Z,7.20
2022-08-31T18:09:37.333Z,13.50
2022-08-31T18:11:58.673Z,16.10
2022-08-31T18:19:09.917Z,21.40
2022-08-31T18:22:14.537Z,24.50
2022-08-31T18:32:19.804Z,31.70
2022-08-31T18:39:09.471Z,34.30
2022-08-31T18:41:51.071Z,35.70
2022-08-31T18:45:00.164Z,36.60
2022-08-31T18:47:39.630Z,38.80
2022-08-31T18:50:52.227Z,40.00
2022-08-31T18:53:30.774Z,40.70
2022-08-31T18:56:08.454Z,41.40
2022-08-31T18:58:50.902Z,42.20
2022-08-31T19:01:19.933Z,42.80
2022-08-31T19:03:51.528Z,43.60
2022-08-31T19:10:07.939Z,45.80
2022-08-31T19:12:43.736Z,46.10
2022-08-31T19:15:25.586Z,46.60
2022-08-31T19:18:13.165Z,47.10
2022-08-31T19:20:44.538Z,47.20
2022-08-31T19:23:19.872Z,48.80
2022-08-31T19:25:57.248Z,49.40
2022-08-31T19:30:10.793Z,49.60
2022-08-31T19:33:40.057Z,50.90
2022-08-31T19:36:58.527Z,51.70
2022-08-31T19:39:41.571Z,52.30
2022-08-31T19:46:26.112Z,55.00
2022-08-31T19:49:02.487Z,55.90
2022-08-31T19:57:08.688Z,58.40
2022-08-31T20:03:27.845Z,61.40
2022-08-31T20:05:57.793Z,62.30
2022-08-31T20:09:22.520Z,61.80
2022-08-31T20:12:05.279Z,62.40
2022-08-31T20:15:01.708Z,63.60
2022-08-31T20:17:30.486Z,66.00
2022-08-31T20:19:59.955Z,65.90
2022-08-31T20:22:29.941Z,66.80
2022-08-31T20:24:58.328Z,67.00
2022-08-31T20:27:28.202Z,69.20
2022-08-31T20:29:57.711Z,69.80
2022-08-31T20:32:28.524Z,70.60
2022-08-31T20:34:58.203Z,72.70
2022-08-31T20:37:28.237Z,73.50
2022-08-31T20:39:56.936Z,79.10
2022-08-31T20:42:25.895Z,80.60
2022-08-31T20:44:55.320Z,82.50
2022-08-31T20:47:49.588Z,85.90
2022-08-31T20:50:20.345Z,85.70
2022-08-31T20:52:51.337Z,87.60
2022-08-31T20:55:19.492Z,87.50
2022-08-31T20:57:48.141Z,87.00
2022-08-31T21:00:19.249Z,89.10
2022-08-31T21:02:49.921Z,88.30
2022-08-31T21:08:08.378Z,90.50
2022-08-31T21:10:38.609Z,91.30
2022-08-31T21:13:08.555Z,91.10
2022-08-31T21:15:40.146Z,92.80
2022-08-31T21:18:08.130Z,93.10
2022-08-31T21:20:37.624Z,93.50
2022-08-31T21:23:09.849Z,93.90
2022-08-31T21:25:46.309Z,94.20
2022-08-31T21:28:17.698Z,95.20
2022-08-31T21:30:49.395Z,95.50
2022-08-31T21:33:20.999Z,96.20
2022-08-31T21:35:49.213Z,96.90
2022-08-31T21:38:20.031Z,97.80
2022-08-31T21:40:49.988Z,98.30
2022-08-31T21:43:18.916Z,99.90
2022-08-31T21:45:47.116Z,99.90
2022-08-31T21:48:15.352Z,99.90
2022-08-31T21:50:43.824Z,99.90
2022-08-31T21:53:12.646Z,99.90
2022-08-31T21:55:44.324Z,99.90
2022-08-31T21:58:12.307Z,99.90
2022-08-31T22:00:42.127Z,99.90
2022-08-31T22:03:10.608Z,99.90
2022-08-31T22:05:41.604Z,99.90
2022-08-31T22:08:10.134Z,99.90
2022-08-31T22:10:41.941Z,99.90
2022-08-31T22:13:12.247Z,99.90
2022-08-31T22:15:42.620Z,99.90
2022-08-31T22:21:01.272Z,99.90
2022-08-31T22:23:30.588Z,99.90
2022-08-31T22:26:02.261Z,99.90
2022-08-31T22:28:30.297Z,99.90
2022-08-31T22:30:58.846Z,99.90
2022-08-31T22:33:26.835Z,99.90
2022-08-31T22:35:54.839Z,99.90
2022-08-31T22:38:22.959Z,99.90
2022-08-31T22:40:51.216Z,99.90
2022-08-31T22:43:21.064Z,99.90
2022-08-31T22:45:50.407Z,99.90
2022-08-31T22:48:18.715Z,99.90
2022-08-31T22:50:47.362Z,99.90
2022-08-31T22:53:15.296Z,99.90
2022-08-31T22:55:43.368Z,99.90
2022-08-31T22:58:12.955Z,99.90
2022-08-31T23:00:48.062Z,99.90
2022-08-31T23:03:16.797Z,99.90
2022-08-31T23:05:45.081Z,99.90
2022-08-31T23:08:13.864Z,99.90
2022-08-31T23:10:42.577Z,99.90
2022-08-31T23:13:10.492Z,99.90
2022-08-31T23:15:38.794Z,99.90
2022-08-31T23:18:10.481Z,99.90
2022-08-31T23:20:41.975Z,99.90
2022-08-31T23:23:10.807Z,99.90
2022-08-31T23:25:40.717Z,99.90
2022-08-31T23:28:09.500Z,99.90
2022-08-31T23:30:43.345Z,99.90
2022-08-31T23:33:13.742Z,99.90
2022-08-31T23:35:43.289Z,99.90
2022-08-31T23:38:11.275Z,99.90
2022-08-31T23:40:39.638Z,99.90
2022-08-31T23:43:08.935Z,99.90
2022-08-31T23:45:41.412Z,99.90
2022-08-31T23:48:09.609Z,99.90
2022-08-31T23:50:39.033Z,99.90
2022-08-31T23:53:12.207Z,99.90
2022-08-31T23:55:45.958Z,99.90
2022-08-31T23:58:16.708Z,99.90
